Kasagimaru — JJ3905 — position and weather

sailwx.info

Track history (hours):
 
Tides and Currents Weather Stations Pressure Air Temp Water Temp Dewpoint Dewpoint Depression Visibility Wind Speed Wind Dir Waves Ship Positions

Kasagimaru

Last reported at 2015-Jan-26 11:32 UTC. Time now 2015-Jan-26 12:30 UTC.
Position N 34°33' E 135°24'.

Length 42 m; draft 3.5 m.

Type: Tug. MMSI: 431300268.

Date/timePositionNaut miles runAvg speedWind from/ knotsBaromVisibWave heightAir tempDewpointWater temp
2015-Jan-26 11:32N 34°33' E 135°24'0 0.1
2015-Jan-26 10:31N 34°33' E 135°24'0 0.0
2015-Jan-26 09:33N 34°33' E 135°24'0 0.1
2015-Jan-26 08:33N 34°33' E 135°24'0 0.0
2015-Jan-26 07:30N 34°33' E 135°24'0 0.0
2015-Jan-26 06:32N 34°33' E 135°24'0 0.1
2015-Jan-26 05:30N 34°33' E 135°24'0 0.1
2015-Jan-26 04:28N 34°33' E 135°24'0 0.1
2015-Jan-26 03:31N 34°33' E 135°24'0 0.1
2015-Jan-26 02:33N 34°33' E 135°24'0 0.1
2015-Jan-26 01:33N 34°33' E 135°24'6 5.6
2015-Jan-26 00:33N 34°33' E 135°17'1814.5
2015-Jan-25 23:18N 34°20' E 135°02'912.1
2015-Jan-25 22:33N 34°11' E 134°59'  
2015-Jan-23 04:03N 34°18' E 134°59'713.2
2015-Jan-23 03:32N 34°24' E 135°04'1413.8
2015-Jan-23 02:32N 34°32' E 135°18'6 5.2
2015-Jan-23 01:23N 34°34' E 135°24'2 2.5
2015-Jan-23 00:33N 34°33' E 135°27'0 0.0
2015-Jan-22 23:32N 34°33' E 135°27'0 0.0
2015-Jan-22 22:33N 34°33' E 135°27'0 0.0
2015-Jan-22 21:33N 34°33' E 135°27'0 0.0
2015-Jan-22 20:33N 34°33' E 135°27'0 0.0
2015-Jan-22 19:33N 34°33' E 135°27'0 0.0
2015-Jan-22 17:32N 34°33' E 135°27'0 0.0
2015-Jan-22 16:25N 34°33' E 135°27'0 0.0
2015-Jan-22 15:33N 34°33' E 135°27'0 0.0
2015-Jan-22 14:33N 34°33' E 135°27'0 0.0
2015-Jan-22 13:33N 34°33' E 135°27'0 0.0
2015-Jan-22 12:31N 34°33' E 135°27'0 0.0
2015-Jan-22 11:20N 34°33' E 135°27'6 7.6
2015-Jan-22 10:33N 34°39' E 135°24'4 3.5
2015-Jan-22 09:33N 34°39' E 135°29'0 0.1
2015-Jan-22 08:32N 34°39' E 135°29'4 4.4
2015-Jan-22 07:33N 34°38' E 135°24'2 2.1
2015-Jan-22 06:33N 34°39' E 135°26'0 0.0
2015-Jan-22 05:33N 34°39' E 135°26'6 5.1
2015-Jan-22 04:27N 34°34' E 135°24'0 0.0
2015-Jan-22 02:32N 34°34' E 135°24'3 3.4
2015-Jan-22 01:33N 34°33' E 135°20'1010.3
2015-Jan-22 00:33N 34°28' E 135°10'1414.3
2015-Jan-21 23:33N 34°16' E 134°59'6 8.4
2015-Jan-21 22:49N 34°10' E 135°01'0 1.3
2015-Jan-21 22:45N 34°10' E 135°01'1 6.4
2015-Jan-21 22:32N 34°11' E 135°02'6 6.3
2015-Jan-21 21:33N 34°13' E 135°09'0 0.0
2015-Jan-21 20:33N 34°13' E 135°09'0 0.0
2015-Jan-21 19:33N 34°13' E 135°09'0 0.0
2015-Jan-21 18:33N 34°13' E 135°09'0 0.0
2015-Jan-21 17:34N 34°13' E 135°09'0 0.0
2015-Jan-21 16:33N 34°13' E 135°09'0 0.0
2015-Jan-21 15:34N 34°13' E 135°09'0 0.0
2015-Jan-21 14:34N 34°13' E 135°09'0 0.0
2015-Jan-21 13:34N 34°13' E 135°09'0 0.0
2015-Jan-21 12:34N 34°13' E 135°09'0 0.0
2015-Jan-21 11:33N 34°13' E 135°09'0 0.0
2015-Jan-21 10:33N 34°13' E 135°09'0 0.0
2015-Jan-21 09:33N 34°13' E 135°09'0 0.0
2015-Jan-21 08:33N 34°13' E 135°09'0 0.0
2015-Jan-21 07:33N 34°13' E 135°09'0 0.0
2015-Jan-21 06:33N 34°13' E 135°09'0 0.0
2015-Jan-21 05:33N 34°13' E 135°09'9 7.1
2015-Jan-21 04:16N 34°15' E 134°58'1013.5
2015-Jan-21 03:33N 34°23' E 135°03'1414.0
2015-Jan-21 02:33N 34°32' E 135°16'7 6.6
2015-Jan-21 01:33N 34°33' E 135°24'3 0.9
2015-Jan-20 22:31N 34°31' E 135°23'1 0.5
2015-Jan-20 21:31N 34°31' E 135°23'3 3.5
2015-Jan-20 20:33N 34°33' E 135°27'0 0.0
2015-Jan-20 19:33N 34°33' E 135°27'0 0.0
2015-Jan-20 18:33N 34°33' E 135°27'0 0.0
2015-Jan-20 17:33N 34°33' E 135°27'0 0.0
2015-Jan-20 16:33N 34°33' E 135°27'0 0.0
2015-Jan-20 15:33N 34°33' E 135°27'0 0.0
2015-Jan-20 14:33N 34°33' E 135°27'0 0.0
2015-Jan-20 13:24N 34°33' E 135°27'0 0.0
2015-Jan-20 12:33N 34°33' E 135°27'0 0.0
2015-Jan-20 11:33N 34°33' E 135°27'0 0.0
2015-Jan-20 10:28N 34°33' E 135°27'0 0.0
2015-Jan-20 09:32N 34°33' E 135°27'0 0.0
2015-Jan-20 08:33N 34°33' E 135°27'0 0.0
2015-Jan-20 07:33N 34°33' E 135°27'3 2.8
2015-Jan-20 06:33N 34°32' E 135°23'1 1.1
2015-Jan-20 05:28N 34°31' E 135°23'0 0.2
2015-Jan-20 04:29N 34°31' E 135°23'3 2.6
2015-Jan-20 03:31N 34°33' E 135°24'0 0.3
2015-Jan-20 02:32N 34°33' E 135°24'7 6.8
2015-Jan-20 01:32N 34°33' E 135°16'1713.1
2015-Jan-20 00:14N 34°20' E 135°02'912.5
2015-Jan-19 23:33N 34°12' E 134°60'  
2015-Jan-17 06:27N 34°11' E 134°50'1411.9
2015-Jan-17 05:18N 34°21' E 135°01'912.1
2015-Jan-17 04:33N 34°26' E 135°10'1212.0
2015-Jan-17 03:33N 34°32' E 135°23'1 1.3
2015-Jan-17 02:33N 34°31' E 135°24'2 1.7
2015-Jan-17 01:33N 34°33' E 135°24'2 2.0
2015-Jan-17 00:33N 34°33' E 135°27'0 0.0
2015-Jan-16 23:33N 34°33' E 135°27'0 0.0
2015-Jan-16 22:33N 34°33' E 135°27'0 0.0
2015-Jan-16 21:33N 34°33' E 135°27'0 0.0
2015-Jan-16 20:33N 34°33' E 135°27'0 0.0
2015-Jan-16 19:33N 34°33' E 135°27'0 0.0
2015-Jan-16 18:33N 34°33' E 135°27'0 0.0
2015-Jan-16 16:33N 34°33' E 135°27'0 0.0
2015-Jan-16 15:33N 34°33' E 135°27'0 0.0
2015-Jan-16 14:33N 34°33' E 135°27'0 0.0
2015-Jan-16 13:33N 34°33' E 135°27'0 0.0
2015-Jan-16 12:33N 34°33' E 135°27'  
Track history (hours):
 
Tides and Currents Weather Stations Pressure Air Temp Water Temp Dewpoint Dewpoint Depression Visibility Wind Speed Wind Dir Waves Ship Positions

Kasagimaru

Last reported at 2015-Jan-26 11:32 UTC. Time now 2015-Jan-26 12:30 UTC.
Position N 34°33' E 135°24'.

Length 42 m; draft 3.5 m.

Type: Tug. MMSI: 431300268.

Date/timePositionNaut miles runAvg speedWind from/ knotsBaromVisibWave heightAir tempDewpointWater temp
2015-Jan-26 11:32N 34°33' E 135°24'0 0.1
2015-Jan-26 10:31N 34°33' E 135°24'0 0.0
2015-Jan-26 09:33N 34°33' E 135°24'0 0.1
2015-Jan-26 08:33N 34°33' E 135°24'0 0.0
2015-Jan-26 07:30N 34°33' E 135°24'0 0.0
2015-Jan-26 06:32N 34°33' E 135°24'0 0.1
2015-Jan-26 05:30N 34°33' E 135°24'0 0.1
2015-Jan-26 04:28N 34°33' E 135°24'0 0.1
2015-Jan-26 03:31N 34°33' E 135°24'0 0.1
2015-Jan-26 02:33N 34°33' E 135°24'0 0.1
2015-Jan-26 01:33N 34°33' E 135°24'6 5.6
2015-Jan-26 00:33N 34°33' E 135°17'1814.5
2015-Jan-25 23:18N 34°20' E 135°02'912.1
2015-Jan-25 22:33N 34°11' E 134°59'  
2015-Jan-23 04:03N 34°18' E 134°59'713.2
2015-Jan-23 03:32N 34°24' E 135°04'1413.8
2015-Jan-23 02:32N 34°32' E 135°18'6 5.2
2015-Jan-23 01:23N 34°34' E 135°24'2 2.5
2015-Jan-23 00:33N 34°33' E 135°27'0 0.0
2015-Jan-22 23:32N 34°33' E 135°27'0 0.0
2015-Jan-22 22:33N 34°33' E 135°27'0 0.0
2015-Jan-22 21:33N 34°33' E 135°27'0 0.0
2015-Jan-22 20:33N 34°33' E 135°27'0 0.0
2015-Jan-22 19:33N 34°33' E 135°27'0 0.0
2015-Jan-22 17:32N 34°33' E 135°27'0 0.0
2015-Jan-22 16:25N 34°33' E 135°27'0 0.0
2015-Jan-22 15:33N 34°33' E 135°27'0 0.0
2015-Jan-22 14:33N 34°33' E 135°27'0 0.0
2015-Jan-22 13:33N 34°33' E 135°27'0 0.0
2015-Jan-22 12:31N 34°33' E 135°27'0 0.0
2015-Jan-22 11:20N 34°33' E 135°27'6 7.6
2015-Jan-22 10:33N 34°39' E 135°24'4 3.5
2015-Jan-22 09:33N 34°39' E 135°29'0 0.1
2015-Jan-22 08:32N 34°39' E 135°29'4 4.4
2015-Jan-22 07:33N 34°38' E 135°24'2 2.1
2015-Jan-22 06:33N 34°39' E 135°26'0 0.0
2015-Jan-22 05:33N 34°39' E 135°26'6 5.1
2015-Jan-22 04:27N 34°34' E 135°24'0 0.0
2015-Jan-22 02:32N 34°34' E 135°24'3 3.4
2015-Jan-22 01:33N 34°33' E 135°20'1010.3
2015-Jan-22 00:33N 34°28' E 135°10'1414.3
2015-Jan-21 23:33N 34°16' E 134°59'6 8.4
2015-Jan-21 22:49N 34°10' E 135°01'0 1.3
2015-Jan-21 22:45N 34°10' E 135°01'1 6.4
2015-Jan-21 22:32N 34°11' E 135°02'6 6.3
2015-Jan-21 21:33N 34°13' E 135°09'0 0.0
2015-Jan-21 20:33N 34°13' E 135°09'0 0.0
2015-Jan-21 19:33N 34°13' E 135°09'0 0.0
2015-Jan-21 18:33N 34°13' E 135°09'0 0.0
2015-Jan-21 17:34N 34°13' E 135°09'0 0.0
2015-Jan-21 16:33N 34°13' E 135°09'0 0.0
2015-Jan-21 15:34N 34°13' E 135°09'0 0.0
2015-Jan-21 14:34N 34°13' E 135°09'0 0.0
2015-Jan-21 13:34N 34°13' E 135°09'0 0.0
2015-Jan-21 12:34N 34°13' E 135°09'0 0.0
2015-Jan-21 11:33N 34°13' E 135°09'0 0.0
2015-Jan-21 10:33N 34°13' E 135°09'0 0.0
2015-Jan-21 09:33N 34°13' E 135°09'0 0.0
2015-Jan-21 08:33N 34°13' E 135°09'0 0.0
2015-Jan-21 07:33N 34°13' E 135°09'0 0.0
2015-Jan-21 06:33N 34°13' E 135°09'0 0.0
2015-Jan-21 05:33N 34°13' E 135°09'9 7.1
2015-Jan-21 04:16N 34°15' E 134°58'1013.5
2015-Jan-21 03:33N 34°23' E 135°03'1414.0
2015-Jan-21 02:33N 34°32' E 135°16'7 6.6
2015-Jan-21 01:33N 34°33' E 135°24'3 0.9
2015-Jan-20 22:31N 34°31' E 135°23'1 0.5
2015-Jan-20 21:31N 34°31' E 135°23'3 3.5
2015-Jan-20 20:33N 34°33' E 135°27'0 0.0
2015-Jan-20 19:33N 34°33' E 135°27'0 0.0
2015-Jan-20 18:33N 34°33' E 135°27'0 0.0
2015-Jan-20 17:33N 34°33' E 135°27'0 0.0
2015-Jan-20 16:33N 34°33' E 135°27'0 0.0
2015-Jan-20 15:33N 34°33' E 135°27'0 0.0
2015-Jan-20 14:33N 34°33' E 135°27'0 0.0
2015-Jan-20 13:24N 34°33' E 135°27'0 0.0
2015-Jan-20 12:33N 34°33' E 135°27'0 0.0
2015-Jan-20 11:33N 34°33' E 135°27'0 0.0
2015-Jan-20 10:28N 34°33' E 135°27'0 0.0
2015-Jan-20 09:32N 34°33' E 135°27'0 0.0
2015-Jan-20 08:33N 34°33' E 135°27'0 0.0
2015-Jan-20 07:33N 34°33' E 135°27'3 2.8
2015-Jan-20 06:33N 34°32' E 135°23'1 1.1
2015-Jan-20 05:28N 34°31' E 135°23'0 0.2
2015-Jan-20 04:29N 34°31' E 135°23'3 2.6
2015-Jan-20 03:31N 34°33' E 135°24'0 0.3
2015-Jan-20 02:32N 34°33' E 135°24'7 6.8
2015-Jan-20 01:32N 34°33' E 135°16'1713.1
2015-Jan-20 00:14N 34°20' E 135°02'912.5
2015-Jan-19 23:33N 34°12' E 134°60'  
2015-Jan-17 06:27N 34°11' E 134°50'1411.9
2015-Jan-17 05:18N 34°21' E 135°01'912.1
2015-Jan-17 04:33N 34°26' E 135°10'1212.0
2015-Jan-17 03:33N 34°32' E 135°23'1 1.3
2015-Jan-17 02:33N 34°31' E 135°24'2 1.7
2015-Jan-17 01:33N 34°33' E 135°24'2 2.0
2015-Jan-17 00:33N 34°33' E 135°27'0 0.0
2015-Jan-16 23:33N 34°33' E 135°27'0 0.0
2015-Jan-16 22:33N 34°33' E 135°27'0 0.0
2015-Jan-16 21:33N 34°33' E 135°27'0 0.0
2015-Jan-16 20:33N 34°33' E 135°27'0 0.0
2015-Jan-16 19:33N 34°33' E 135°27'0 0.0
2015-Jan-16 18:33N 34°33' E 135°27'0 0.0
2015-Jan-16 16:33N 34°33' E 135°27'0 0.0
2015-Jan-16 15:33N 34°33' E 135°27'0 0.0
2015-Jan-16 14:33N 34°33' E 135°27'0 0.0
2015-Jan-16 13:33N 34°33' E 135°27'0 0.0
2015-Jan-16 12:33N 34°33' E 135°27'  

Dump ship's entire track history